Pass Lake, Canada
Current Conditions -  °F | °C
As of 3:00 PM on Thursday 29 Jan 2015 (Local Time) from CYQT Reporting Station
Scattered Clouds Scattered Clouds  
Wind Chill: -1°   Ceiling: Unl
Heat Index: 16°   Visibility: 20mi
Dew Point:   Wind: 20mph
Humidity: 62%   Direction: 310°NW
Pressure: 30.15"   Gusts: 30mph
Location:  48.57°N, 88.73°W
Report Text: CYQT 292000Z 31017G26KT 20SM SCT031 SCT220 M09/M15 A3015 RMK SC3CC1 SLP225
Loading
Personal Weather Stations






























Interactive Weather Map New forecast layout! Learn more

10-Day Weather Forecast

Advertisements
Track Severe Weather on mobile